createdAt,value
2019-05-20T00:01:59.812Z,1.20
2019-05-20T00:04:28.319Z,1.87
2019-05-20T00:06:56.758Z,1.30
2019-05-20T00:09:25.234Z,0.77
2019-05-20T00:11:53.845Z,1.30
2019-05-20T00:14:22.436Z,0.90
2019-05-20T00:16:50.986Z,1.67
2019-05-20T00:19:19.427Z,1.07
2019-05-20T00:21:48.000Z,1.03
2019-05-20T00:24:16.505Z,0.97
2019-05-20T00:26:45.005Z,0.93
2019-05-20T00:29:13.465Z,1.10
2019-05-20T00:31:41.960Z,1.43
2019-05-20T00:34:10.398Z,2.63
2019-05-20T00:36:38.876Z,1.30
2019-05-20T00:39:16.163Z,2.93
2019-05-20T00:41:46.272Z,1.20
2019-05-20T00:44:14.769Z,1.00
2019-05-20T00:46:43.324Z,2.67
2019-05-20T00:49:11.873Z,1.00
2019-05-20T00:51:41.118Z,1.40
2019-05-20T00:54:09.732Z,0.90
2019-05-20T00:56:38.342Z,2.00
2019-05-20T00:59:06.899Z,1.30
2019-05-20T01:01:35.476Z,0.90
2019-05-20T01:04:04.156Z,1.40
2019-05-20T01:06:32.720Z,0.97
2019-05-20T01:09:01.229Z,1.00
2019-05-20T01:11:29.754Z,1.30
2019-05-20T01:13:58.222Z,1.13
2019-05-20T01:16:26.764Z,0.90
2019-05-20T01:18:55.387Z,1.47
2019-05-20T01:21:24.041Z,0.80
2019-05-20T01:23:52.602Z,1.77
2019-05-20T01:26:21.096Z,1.20
2019-05-20T01:28:49.620Z,0.93
2019-05-20T01:31:18.101Z,1.40
2019-05-20T01:33:46.585Z,1.33
2019-05-20T01:36:15.264Z,1.00
2019-05-20T01:38:45.396Z,1.27
2019-05-20T01:41:13.924Z,1.10
2019-05-20T01:43:42.442Z,1.77
2019-05-20T01:46:10.926Z,1.13
2019-05-20T01:48:39.446Z,1.33
2019-05-20T01:51:07.998Z,1.87
2019-05-20T01:53:36.519Z,0.90
2019-05-20T01:56:05.081Z,1.17
2019-05-20T01:58:33.533Z,1.97
2019-05-20T02:01:02.173Z,1.00
2019-05-20T02:03:32.318Z,1.50
2019-05-20T02:06:00.869Z,1.37
2019-05-20T02:08:29.349Z,2.33
2019-05-20T02:10:57.869Z,1.47
2019-05-20T02:13:27.977Z,1.30
2019-05-20T02:15:58.124Z,1.20
2019-05-20T02:18:26.648Z,1.50
2019-05-20T02:20:55.175Z,1.33
2019-05-20T02:23:23.728Z,1.80
2019-05-20T02:25:52.333Z,1.43
2019-05-20T02:28:20.803Z,1.50
2019-05-20T02:30:49.242Z,1.40
2019-05-20T02:33:17.741Z,1.70
2019-05-20T02:35:46.247Z,1.53
2019-05-20T02:38:14.762Z,1.37
2019-05-20T02:40:43.219Z,1.27
2019-05-20T02:43:12.320Z,1.80
2019-05-20T02:45:40.800Z,1.40
2019-05-20T02:48:09.289Z,2.73
2019-05-20T02:50:37.774Z,1.60
2019-05-20T02:53:06.333Z,1.50
2019-05-20T02:55:34.898Z,1.73
2019-05-20T02:58:03.353Z,1.33
2019-05-20T03:00:31.926Z,1.53
2019-05-20T03:03:00.364Z,1.50
2019-05-20T03:05:28.927Z,1.60
2019-05-20T03:07:57.449Z,2.67
2019-05-20T03:10:26.005Z,5.00
2019-05-20T03:12:54.530Z,3.93
2019-05-20T03:15:23.070Z,3.13
2019-05-20T03:17:51.612Z,3.40
2019-05-20T03:20:21.717Z,2.57
2019-05-20T03:22:50.445Z,2.03
2019-05-20T03:25:18.907Z,1.97
2019-05-20T03:27:47.494Z,1.70
2019-05-20T03:30:16.221Z,1.87
2019-05-20T03:32:44.714Z,1.83
2019-05-20T03:35:13.281Z,1.90
2019-05-20T03:37:41.741Z,2.20
2019-05-20T03:40:10.350Z,2.13
2019-05-20T03:42:38.793Z,1.80
2019-05-20T03:45:07.983Z,1.90
2019-05-20T03:47:36.606Z,1.80
2019-05-20T03:50:08.159Z,2.10
2019-05-20T03:52:36.833Z,2.07
2019-05-20T03:55:09.021Z,2.20
2019-05-20T03:57:37.571Z,2.60
2019-05-20T04:00:07.011Z,2.13
2019-05-20T04:02:35.578Z,2.40
2019-05-20T04:05:04.708Z,2.53
2019-05-20T04:07:33.303Z,2.50
2019-05-20T04:10:01.891Z,2.30
2019-05-20T04:12:30.392Z,2.03
2019-05-20T04:14:58.861Z,2.33
2019-05-20T04:17:27.429Z,2.37
2019-05-20T04:19:55.880Z,2.17
2019-05-20T04:22:24.379Z,4.80
2019-05-20T04:24:52.991Z,2.40
2019-05-20T04:27:21.619Z,2.50
2019-05-20T04:29:50.050Z,2.10
2019-05-20T04:32:18.521Z,2.73
2019-05-20T04:34:47.007Z,2.83
2019-05-20T04:37:15.577Z,3.87
2019-05-20T04:39:44.071Z,2.57
2019-05-20T04:42:12.640Z,2.63
2019-05-20T04:44:41.226Z,3.17
2019-05-20T04:47:09.867Z,2.53
2019-05-20T04:49:38.327Z,2.73
2019-05-20T04:52:06.955Z,3.27
2019-05-20T04:54:35.446Z,2.53
2019-05-20T04:57:05.597Z,2.67
2019-05-20T04:59:34.020Z,3.10
2019-05-20T05:02:02.491Z,3.40
2019-05-20T05:04:30.912Z,2.93
2019-05-20T05:06:59.408Z,2.80
2019-05-20T05:09:28.106Z,3.20
2019-05-20T05:11:56.804Z,3.63
2019-05-20T05:14:25.344Z,5.57
2019-05-20T05:16:53.935Z,3.27
2019-05-20T05:19:22.513Z,3.40
2019-05-20T05:21:54.006Z,3.10
2019-05-20T05:24:22.519Z,3.10
2019-05-20T05:26:51.064Z,3.47
2019-05-20T05:29:19.580Z,2.70
2019-05-20T05:31:48.050Z,4.90
2019-05-20T05:34:16.701Z,3.63
2019-05-20T05:36:45.483Z,3.63
2019-05-20T05:39:14.065Z,4.17
2019-05-20T05:41:42.611Z,4.10
2019-05-20T05:44:11.115Z,4.33
2019-05-20T05:46:39.632Z,3.40
2019-05-20T05:49:08.129Z,5.87
2019-05-20T05:51:36.609Z,3.90
2019-05-20T05:54:05.412Z,3.67
2019-05-20T05:56:33.905Z,4.00
2019-05-20T05:59:02.471Z,4.70
2019-05-20T06:01:30.932Z,6.93
2019-05-20T06:03:59.641Z,6.73
2019-05-20T06:06:28.129Z,7.47
2019-05-20T06:08:56.598Z,8.50
2019-05-20T06:11:25.074Z,8.10
2019-05-20T06:13:53.545Z,8.53
2019-05-20T06:16:36.038Z,7.03
2019-05-20T06:18:52.228Z,7.80
2019-05-20T06:21:20.794Z,8.17
2019-05-20T06:23:49.384Z,9.47
2019-05-20T06:26:17.869Z,7.80
2019-05-20T06:28:46.376Z,8.40
2019-05-20T06:31:16.043Z,11.03
2019-05-20T06:33:44.573Z,7.93
2019-05-20T06:36:26.050Z,9.67
2019-05-20T06:38:44.399Z,8.83
2019-05-20T06:41:12.896Z,8.97
2019-05-20T06:43:41.437Z,10.20
2019-05-20T06:46:09.929Z,7.97
2019-05-20T06:48:38.437Z,9.27
2019-05-20T06:51:06.869Z,8.60
2019-05-20T06:53:35.445Z,9.47
2019-05-20T06:56:04.052Z,10.57
2019-05-20T06:58:32.597Z,8.10
2019-05-20T07:01:01.104Z,10.23
2019-05-20T07:03:29.626Z,9.40
2019-05-20T07:05:58.089Z,10.67
2019-05-20T07:08:26.661Z,8.87
2019-05-20T07:10:55.150Z,9.80
2019-05-20T07:13:26.044Z,11.73
2019-05-20T07:15:54.536Z,8.97
2019-05-20T07:18:23.208Z,9.27
2019-05-20T07:20:51.661Z,10.27
2019-05-20T07:23:20.119Z,9.10
2019-05-20T07:25:48.756Z,12.00
2019-05-20T07:28:17.274Z,9.93
2019-05-20T07:30:45.740Z,10.97
2019-05-20T07:33:14.292Z,9.10
2019-05-20T07:35:42.819Z,9.73
2019-05-20T07:38:11.330Z,11.73
2019-05-20T07:40:39.969Z,11.53
2019-05-20T07:43:08.413Z,11.07
2019-05-20T07:45:37.204Z,11.60
2019-05-20T07:48:06.017Z,11.37
2019-05-20T07:50:37.301Z,12.23
2019-05-20T07:53:07.487Z,9.97
2019-05-20T07:55:39.018Z,10.90
2019-05-20T07:58:09.752Z,8.70
2019-05-20T08:00:38.446Z,11.60
2019-05-20T08:03:07.005Z,11.03
2019-05-20T08:05:35.433Z,10.87
2019-05-20T08:08:04.134Z,15.00
2019-05-20T08:10:32.600Z,12.07
2019-05-20T08:13:01.111Z,10.77
2019-05-20T08:15:29.636Z,11.37
2019-05-20T08:17:58.128Z,13.43
2019-05-20T08:20:26.676Z,10.27
2019-05-20T08:22:55.107Z,15.00
2019-05-20T08:25:23.646Z,11.37
2019-05-20T08:27:52.094Z,12.00
2019-05-20T08:30:32.724Z,10.50
2019-05-20T08:33:01.382Z,10.87
2019-05-20T08:35:29.890Z,12.50
2019-05-20T08:37:58.565Z,11.03
2019-05-20T08:40:27.067Z,10.70
2019-05-20T08:42:55.560Z,11.17
2019-05-20T08:45:24.108Z,11.90
2019-05-20T08:47:52.617Z,11.70
2019-05-20T08:50:21.144Z,12.47
2019-05-20T08:52:49.741Z,11.27
2019-05-20T08:55:18.459Z,13.63
2019-05-20T08:57:46.905Z,12.10
2019-05-20T09:00:23.219Z,10.77
2019-05-20T09:02:49.105Z,11.77
2019-05-20T09:05:17.706Z,11.30
2019-05-20T09:08:01.552Z,12.33
2019-05-20T09:10:18.337Z,13.10
2019-05-20T09:12:47.123Z,13.53
2019-05-20T09:15:15.787Z,13.60
2019-05-20T09:17:44.259Z,12.13
2019-05-20T09:20:13.326Z,10.87
2019-05-20T09:22:41.858Z,11.83
2019-05-20T09:25:10.896Z,12.30
2019-05-20T09:27:39.701Z,13.23
2019-05-20T09:30:10.558Z,12.53
2019-05-20T09:32:42.800Z,13.37
2019-05-20T09:35:09.907Z,14.10
2019-05-20T09:37:38.412Z,13.73
2019-05-20T09:40:07.527Z,14.30
2019-05-20T09:42:36.047Z,14.47
2019-05-20T09:45:05.723Z,12.77
2019-05-20T09:47:34.361Z,14.30
2019-05-20T09:50:03.215Z,14.40
2019-05-20T09:52:31.814Z,12.73
2019-05-20T09:55:00.353Z,13.00
2019-05-20T09:57:29.319Z,12.07
2019-05-20T09:59:57.779Z,12.57
2019-05-20T10:02:35.366Z,11.47
2019-05-20T10:04:56.496Z,15.40
2019-05-20T10:07:24.968Z,13.90
2019-05-20T10:09:53.409Z,12.50
2019-05-20T10:12:21.836Z,14.53
2019-05-20T10:14:52.773Z,13.67
2019-05-20T10:17:20.652Z,15.93
2019-05-20T10:19:49.160Z,15.07
2019-05-20T10:22:17.650Z,14.17
2019-05-20T10:24:46.226Z,14.33
2019-05-20T10:27:14.736Z,16.33
2019-05-20T10:29:43.311Z,13.90
2019-05-20T10:32:11.844Z,14.60
2019-05-20T10:34:40.865Z,15.70
2019-05-20T10:37:09.353Z,16.03
2019-05-20T10:39:37.943Z,17.47
2019-05-20T10:42:06.420Z,15.10
2019-05-20T10:44:34.888Z,16.80
2019-05-20T10:47:03.377Z,16.00
2019-05-20T10:49:31.921Z,20.47
2019-05-20T10:52:00.456Z,15.97
2019-05-20T10:54:28.932Z,16.60
2019-05-20T10:56:59.676Z,16.87
2019-05-20T10:59:27.708Z,18.87
2019-05-20T11:01:56.270Z,15.83
2019-05-20T11:04:24.770Z,17.10
2019-05-20T11:06:53.374Z,18.87
2019-05-20T11:09:22.005Z,18.43
2019-05-20T11:11:50.805Z,17.63
2019-05-20T11:14:19.299Z,19.33
2019-05-20T11:16:47.772Z,22.20
2019-05-20T11:19:16.229Z,21.07
2019-05-20T11:21:44.685Z,18.67
2019-05-20T11:24:13.147Z,19.90
2019-05-20T11:26:41.596Z,17.43
2019-05-20T11:29:10.099Z,21.60
2019-05-20T11:31:38.561Z,20.13
2019-05-20T11:34:07.063Z,21.03
2019-05-20T11:36:35.668Z,18.43
2019-05-20T11:39:07.296Z,21.10
2019-05-20T11:41:53.999Z,19.33
2019-05-20T11:44:06.437Z,18.60
2019-05-20T11:46:34.894Z,18.03
2019-05-20T11:49:03.467Z,19.70
2019-05-20T11:51:31.997Z,19.67
2019-05-20T11:54:00.489Z,20.47
2019-05-20T11:56:28.994Z,21.13
2019-05-20T11:58:57.458Z,20.27
2019-05-20T12:01:25.986Z,20.37
2019-05-20T12:03:54.500Z,21.27
2019-05-20T12:06:23.039Z,23.57
2019-05-20T12:08:51.500Z,24.33
2019-05-20T12:11:20.038Z,17.73
2019-05-20T12:13:48.608Z,20.93
2019-05-20T12:16:17.190Z,19.30
2019-05-20T12:18:45.625Z,19.77
2019-05-20T12:21:14.157Z,18.97
2019-05-20T12:23:42.602Z,20.60
2019-05-20T12:26:11.058Z,20.20
2019-05-20T12:28:39.493Z,18.40
2019-05-20T12:31:08.045Z,20.33
2019-05-20T12:33:36.564Z,18.87
2019-05-20T12:36:05.382Z,20.13
2019-05-20T12:38:33.843Z,20.80
2019-05-20T12:41:02.724Z,18.90
2019-05-20T12:43:31.182Z,21.67
2019-05-20T12:45:59.717Z,21.07
2019-05-20T12:48:28.174Z,20.90
2019-05-20T12:50:56.714Z,19.80
2019-05-20T12:53:25.161Z,20.17
2019-05-20T12:55:53.645Z,22.47
2019-05-20T12:58:22.218Z,23.07
2019-05-20T13:00:51.139Z,22.00
2019-05-20T13:03:19.770Z,22.27
2019-05-20T13:05:48.300Z,19.90
2019-05-20T13:08:16.852Z,22.37
2019-05-20T13:10:45.319Z,20.27
2019-05-20T13:13:13.840Z,21.03
2019-05-20T13:15:42.333Z,23.87
2019-05-20T13:18:10.858Z,21.53
2019-05-20T13:20:39.458Z,22.93
2019-05-20T13:23:10.247Z,23.90
2019-05-20T13:25:38.153Z,26.07
2019-05-20T13:28:06.615Z,25.23
2019-05-20T13:30:35.089Z,24.17
2019-05-20T13:33:03.603Z,25.37
2019-05-20T13:35:32.136Z,23.83
2019-05-20T13:38:00.722Z,29.03
2019-05-20T13:40:44.930Z,25.73
2019-05-20T13:42:59.379Z,24.70
2019-05-20T13:45:27.952Z,25.77
2019-05-20T13:47:56.418Z,25.07
2019-05-20T13:50:24.931Z,26.97
2019-05-20T13:52:53.386Z,26.67
2019-05-20T13:55:21.890Z,27.17
2019-05-20T13:57:50.455Z,28.40
2019-05-20T14:00:19.143Z,26.87
2019-05-20T14:02:47.746Z,30.33
2019-05-20T14:05:16.348Z,26.63
2019-05-20T14:07:44.988Z,26.37
2019-05-20T14:10:14.372Z,26.93
2019-05-20T14:12:43.069Z,28.43
2019-05-20T14:15:11.974Z,26.47
2019-05-20T14:17:40.652Z,25.63
2019-05-20T14:20:09.695Z,30.73
2019-05-20T14:22:38.208Z,27.70
2019-05-20T14:25:07.383Z,24.07
2019-05-20T14:27:35.869Z,28.30
2019-05-20T14:30:06.570Z,30.50
2019-05-20T14:32:35.117Z,27.57
2019-05-20T14:35:05.804Z,27.77
2019-05-20T14:37:34.313Z,27.13
2019-05-20T14:40:03.269Z,29.37
2019-05-20T17:14:29.284Z,31.77
2019-05-20T17:16:57.788Z,26.63
2019-05-20T17:19:26.260Z,25.60
2019-05-20T17:21:54.784Z,24.17
2019-05-20T17:24:23.265Z,23.40
2019-05-20T17:26:51.739Z,21.23
2019-05-20T17:29:20.301Z,24.43
2019-05-20T17:31:48.826Z,20.87
2019-05-20T17:34:17.319Z,18.40
2019-05-20T17:36:47.368Z,23.00
2019-05-20T17:39:16.295Z,18.23
2019-05-20T17:41:44.818Z,20.77
2019-05-20T17:44:13.346Z,20.87
2019-05-20T17:46:41.885Z,25.33
2019-05-20T17:49:10.403Z,25.00
2019-05-20T17:51:39.052Z,27.37
2019-05-20T17:54:07.616Z,26.87
2019-05-20T17:56:36.356Z,24.60
2019-05-20T17:59:05.025Z,26.00
2019-05-20T18:01:33.477Z,23.40
2019-05-20T18:04:01.973Z,26.90
2019-05-20T18:06:30.548Z,27.33
2019-05-20T18:09:00.769Z,26.07
2019-05-20T18:11:29.380Z,26.30
2019-05-20T18:13:58.060Z,25.37
2019-05-20T18:16:26.674Z,26.30
2019-05-20T18:18:55.319Z,28.33
2019-05-20T18:21:23.971Z,26.27
2019-05-20T18:23:52.486Z,27.07
2019-05-20T18:26:21.140Z,27.13
2019-05-20T18:28:49.638Z,24.00
2019-05-20T18:31:32.079Z,25.33
2019-05-20T18:33:48.811Z,25.37
2019-05-20T18:36:17.569Z,26.37
2019-05-20T18:38:49.267Z,29.70
2019-05-20T18:41:16.315Z,27.87
2019-05-20T18:43:44.872Z,31.90
2019-05-20T18:46:13.344Z,34.97
2019-05-20T18:48:41.827Z,35.00
2019-05-20T18:51:10.369Z,33.90
2019-05-20T18:53:38.814Z,33.90
2019-05-20T18:56:08.070Z,36.07
2019-05-20T18:58:36.581Z,37.50
2019-05-20T19:01:05.335Z,40.80
2019-05-20T19:03:34.297Z,41.43
2019-05-20T19:06:02.962Z,38.90
2019-05-20T19:08:34.888Z,42.27
2019-05-20T19:11:03.484Z,38.53
2019-05-20T19:13:31.946Z,40.47
2019-05-20T19:16:00.490Z,42.07
2019-05-20T19:18:28.950Z,45.97
2019-05-20T19:21:01.671Z,43.93
2019-05-20T19:23:30.211Z,42.03
2019-05-20T19:26:04.813Z,42.13
2019-05-20T19:28:33.310Z,39.53
2019-05-20T19:31:01.931Z,41.23
2019-05-20T19:33:30.571Z,43.67
2019-05-20T19:35:59.034Z,47.80
2019-05-20T19:38:31.110Z,46.83
2019-05-20T19:40:57.815Z,40.87
2019-05-20T19:43:26.396Z,45.80
2019-05-20T19:45:54.869Z,41.17
2019-05-20T19:48:23.453Z,50.73
2019-05-20T19:50:51.977Z,43.30
2019-05-20T19:53:20.495Z,42.17
2019-05-20T19:55:49.056Z,45.10
2019-05-20T19:58:17.496Z,48.53
2019-05-20T20:00:45.952Z,47.27
2019-05-20T20:03:14.507Z,50.03
2019-05-20T20:05:43.018Z,47.50
2019-05-20T20:08:11.498Z,46.40
2019-05-20T20:10:40.025Z,50.43
2019-05-20T20:13:08.461Z,46.83
2019-05-20T20:15:37.053Z,47.00
2019-05-20T20:18:05.489Z,53.23
2019-05-20T20:20:34.000Z,43.03
2019-05-20T20:23:02.532Z,49.37
2019-05-20T20:25:31.115Z,50.23
2019-05-20T20:27:59.552Z,39.57
2019-05-20T20:30:28.119Z,43.47
2019-05-20T20:32:56.660Z,40.67
2019-05-20T20:35:37.265Z,42.17
2019-05-20T20:37:55.325Z,43.50
2019-05-20T20:40:26.098Z,46.57
2019-05-20T20:42:53.954Z,52.33
2019-05-20T20:45:22.520Z,40.50
2019-05-20T20:47:51.026Z,42.73
2019-05-20T20:50:19.682Z,48.13
2019-05-20T20:52:50.268Z,45.30
2019-05-20T20:55:18.895Z,46.97
2019-05-20T20:57:47.683Z,50.97
2019-05-20T21:00:16.725Z,47.03
2019-05-20T21:02:53.412Z,42.40
2019-05-20T21:05:16.949Z,46.70
2019-05-20T21:07:45.470Z,39.23
2019-05-20T21:10:13.967Z,41.33
2019-05-20T21:12:44.087Z,37.27
2019-05-20T21:15:12.712Z,33.67
2019-05-20T21:17:41.166Z,35.83
2019-05-20T21:20:10.183Z,35.23
2019-05-20T21:22:38.894Z,36.80
2019-05-20T21:25:07.561Z,36.60
2019-05-20T21:27:36.117Z,36.80
2019-05-20T21:30:07.374Z,35.77
2019-05-20T21:32:35.842Z,35.73
2019-05-20T21:35:06.159Z,40.50
2019-05-20T21:37:34.708Z,32.03
2019-05-20T21:40:03.417Z,31.03
2019-05-20T21:42:31.854Z,38.73
2019-05-20T21:45:00.384Z,35.67
2019-05-20T21:47:28.884Z,31.33
2019-05-20T21:49:57.395Z,31.20
2019-05-20T21:52:25.827Z,35.07
2019-05-20T21:54:54.286Z,33.00
2019-05-20T21:57:22.724Z,34.27
2019-05-20T21:59:51.255Z,32.53
2019-05-20T22:02:19.990Z,30.27
2019-05-20T22:04:48.525Z,29.87
2019-05-20T22:07:17.058Z,29.23
2019-05-20T22:09:45.573Z,25.87
2019-05-20T22:12:14.052Z,23.60
2019-05-20T22:14:42.545Z,25.17
2019-05-20T22:17:11.423Z,29.53
2019-05-20T22:19:40.335Z,26.07
2019-05-20T22:22:19.382Z,25.33
2019-05-20T22:24:47.947Z,27.07
2019-05-20T22:27:16.389Z,25.83
2019-05-20T22:29:44.853Z,21.93
2019-05-20T22:32:13.308Z,27.97
2019-05-20T22:34:52.868Z,22.13
2019-05-20T22:37:12.033Z,19.50
2019-05-20T22:39:40.556Z,23.53
2019-05-20T22:42:09.017Z,25.23
2019-05-20T22:44:37.462Z,26.37
2019-05-20T22:47:05.929Z,23.10
2019-05-20T22:49:34.462Z,20.63
2019-05-20T22:52:03.478Z,21.27
2019-05-20T22:54:31.962Z,21.57
2019-05-20T22:57:00.723Z,18.23
2019-05-20T22:59:29.203Z,18.43
2019-05-20T23:01:57.681Z,16.63
2019-05-20T23:04:41.513Z,13.03
2019-05-20T23:07:09.960Z,12.13
2019-05-20T23:09:38.428Z,12.37
2019-05-20T23:12:07.238Z,9.17
2019-05-20T23:14:35.729Z,9.80
2019-05-20T23:17:04.308Z,10.43
2019-05-20T23:19:32.853Z,9.40
2019-05-20T23:22:01.472Z,6.60
2019-05-20T23:24:29.927Z,7.03
2019-05-20T23:26:58.408Z,7.73
2019-05-20T23:29:26.883Z,6.93
2019-05-20T23:31:56.880Z,8.00
2019-05-20T23:34:25.376Z,7.60
2019-05-20T23:36:53.850Z,6.70
2019-05-20T23:39:22.331Z,7.57
2019-05-20T23:41:50.763Z,7.97
2019-05-20T23:44:19.226Z,6.03
2019-05-20T23:46:50.895Z,7.17
2019-05-20T23:49:19.484Z,8.17
2019-05-20T23:51:47.918Z,6.37
2019-05-20T23:54:16.432Z,5.90
2019-05-20T23:56:44.993Z,6.37
2019-05-20T23:59:13.468Z,5.67
